createdAt,value
2023-03-15T00:03:08.542Z,99255.84
2023-03-15T00:07:13.325Z,99252.16
2023-03-15T00:11:16.384Z,99256.16
2023-03-15T00:15:18.292Z,99261.56
2023-03-15T00:19:20.088Z,99263.22
2023-03-15T00:23:21.965Z,99273.06
2023-03-15T00:27:24.851Z,99281.28
2023-03-15T00:31:26.701Z,99269.09
2023-03-15T00:35:28.503Z,99281.75
2023-03-15T00:39:30.313Z,99300.56
2023-03-15T00:43:32.301Z,99308.16
2023-03-15T00:47:34.221Z,99314.88
2023-03-15T00:51:37.506Z,99309.25
2023-03-15T00:55:39.286Z,99316.53
2023-03-15T00:59:41.152Z,99324.97
2023-03-15T01:03:43.394Z,99320.03
2023-03-15T01:07:45.692Z,99323.09
2023-03-15T01:11:47.505Z,99318.16
2023-03-15T01:15:49.388Z,99328.50
2023-03-15T01:19:51.729Z,99336.47
2023-03-15T01:23:53.867Z,99339.75
2023-03-15T01:27:55.692Z,99346.44
2023-03-15T01:31:57.476Z,99345.63
2023-03-15T01:36:04.555Z,99338.25
2023-03-15T01:40:09.676Z,99348.59
2023-03-15T01:44:15.914Z,99345.16
2023-03-15T01:48:17.797Z,99342.13
2023-03-15T01:52:23.271Z,99352.47
2023-03-15T01:56:25.310Z,99348.22
2023-03-15T02:00:27.689Z,99347.75
2023-03-15T02:04:36.474Z,99359.50
2023-03-15T02:08:41.600Z,99352.91
2023-03-15T02:12:46.543Z,99346.09
2023-03-15T02:16:49.034Z,99354.78
2023-03-15T02:21:29.755Z,99370.03
2023-03-15T02:25:55.267Z,99362.88
2023-03-15T02:29:58.536Z,99378.25
2023-03-15T02:34:00.353Z,99371.66
2023-03-15T02:38:02.731Z,99376.00
2023-03-15T02:42:04.755Z,99379.22
2023-03-15T02:46:06.896Z,99390.22
2023-03-15T02:50:09.573Z,99390.69
2023-03-15T02:54:11.425Z,99392.31
2023-03-15T02:58:13.235Z,99406.59
2023-03-15T03:02:15.277Z,99396.44
2023-03-15T03:06:18.153Z,99405.88
2023-03-15T03:10:33.431Z,99410.84
2023-03-15T03:14:35.326Z,99403.66
2023-03-15T03:18:43.449Z,99429.31
2023-03-15T03:22:52.421Z,99438.59
2023-03-15T03:26:58.053Z,99435.16
2023-03-15T03:31:00.508Z,99452.66
2023-03-15T03:35:02.364Z,99456.66
2023-03-15T03:39:07.055Z,99457.47
2023-03-15T03:43:09.271Z,99455.59
2023-03-15T03:47:11.373Z,99463.69
2023-03-15T03:51:13.497Z,99472.06
2023-03-15T03:55:20.623Z,99473.91
2023-03-15T03:59:22.412Z,99481.16
2023-03-15T04:03:27.363Z,99476.88
2023-03-15T04:07:29.238Z,99485.81
2023-03-15T04:11:31.132Z,99483.13
2023-03-15T04:15:32.910Z,99492.81
2023-03-15T04:19:35.119Z,99490.56
2023-03-15T04:23:38.717Z,99514.53
2023-03-15T04:27:40.510Z,99523.19
2023-03-15T04:31:43.425Z,99519.16
2023-03-15T04:35:45.779Z,99524.44
2023-03-15T04:39:47.599Z,99533.38
2023-03-15T04:43:49.405Z,99537.72
2023-03-15T04:47:51.995Z,99541.34
2023-03-15T04:51:53.935Z,99559.50
2023-03-15T04:55:58.790Z,99558.06
2023-03-15T05:00:00.840Z,99554.84
2023-03-15T05:04:05.325Z,99569.53
2023-03-15T05:08:09.550Z,99570.34
2023-03-15T05:12:12.124Z,99577.22
2023-03-15T05:16:15.217Z,99580.34
2023-03-15T05:20:17.130Z,99586.03
2023-03-15T05:24:18.944Z,99592.59
2023-03-15T05:28:24.335Z,99594.75
2023-03-15T05:32:26.996Z,99614.19
2023-03-15T05:36:29.132Z,99611.19
2023-03-15T05:40:38.543Z,99614.28
2023-03-15T05:44:40.760Z,99633.06
2023-03-15T05:48:42.788Z,99620.47
2023-03-15T05:52:44.651Z,99645.84
2023-03-15T05:56:51.189Z,99658.25
2023-03-15T06:00:53.151Z,99649.75
2023-03-15T06:04:55.043Z,99648.56
2023-03-15T06:08:59.114Z,99661.06
2023-03-15T06:13:01.146Z,99648.59
2023-03-15T06:17:02.940Z,99654.66
2023-03-15T06:21:04.676Z,99657.84
2023-03-15T06:25:11.783Z,99670.75
2023-03-15T06:29:15.960Z,99666.81
2023-03-15T06:33:18.040Z,99678.66
2023-03-15T06:37:34.254Z,99671.22
2023-03-15T06:41:39.269Z,99675.44
2023-03-15T06:45:41.328Z,99677.56
2023-03-15T06:49:43.249Z,99676.66
2023-03-15T06:53:45.092Z,99688.69
2023-03-15T06:57:47.002Z,99693.34
2023-03-15T07:01:50.425Z,99694.28
2023-03-15T07:05:54.723Z,99687.56
2023-03-15T07:09:56.548Z,99702.81
2023-03-15T07:13:58.651Z,99693.56
2023-03-15T07:18:00.994Z,99693.84
2023-03-15T07:22:02.983Z,99685.31
2023-03-15T07:26:05.163Z,99684.44
2023-03-15T07:30:09.533Z,99699.63
2023-03-15T07:34:11.414Z,99708.28
2023-03-15T07:38:13.276Z,99693.06
2023-03-15T07:42:15.577Z,99705.63
2023-03-15T07:46:17.431Z,99704.16
2023-03-15T07:50:19.323Z,99704.03
2023-03-15T07:54:21.086Z,99709.22
2023-03-15T07:58:23.110Z,99704.25
2023-03-15T08:02:24.899Z,99707.84
2023-03-15T08:06:26.699Z,99711.50
2023-03-15T08:10:30.860Z,99716.09
2023-03-15T08:14:32.765Z,99721.19
2023-03-15T08:18:34.471Z,99721.19
2023-03-15T08:22:38.160Z,99727.16
2023-03-15T08:26:40.267Z,99716.56
2023-03-15T08:30:42.521Z,99749.28
2023-03-15T08:34:45.083Z,99742.97
2023-03-15T08:38:46.929Z,99756.03
2023-03-15T08:42:49.176Z,99769.28
2023-03-15T08:46:50.940Z,99795.75
2023-03-15T08:50:52.749Z,99806.22
2023-03-15T08:54:54.557Z,99811.56
2023-03-15T08:58:56.300Z,99816.47
2023-03-15T09:02:58.035Z,99832.94
2023-03-15T09:07:00.151Z,99840.34
2023-03-15T09:11:02.015Z,99812.28
2023-03-15T09:15:05.546Z,99823.31
2023-03-15T09:19:08.339Z,99834.91
2023-03-15T09:23:10.528Z,99831.38
2023-03-15T09:27:12.354Z,99820.78
2023-03-15T09:31:14.232Z,99830.88
2023-03-15T09:35:19.628Z,99836.94
2023-03-15T09:39:21.807Z,99831.66
2023-03-15T09:44:01.926Z,99837.69
2023-03-15T09:48:16.282Z,99839.28
2023-03-15T09:52:41.128Z,99836.66
2023-03-15T09:57:06.909Z,99830.31
2023-03-15T10:01:11.340Z,99838.34
2023-03-15T10:05:43.777Z,99834.59
2023-03-15T10:09:45.742Z,99853.19
2023-03-15T10:14:12.365Z,99859.00
2023-03-15T10:19:12.296Z,99857.72
2023-03-15T10:23:23.539Z,99867.31
2023-03-15T10:27:59.409Z,99874.91
2023-03-15T10:32:01.541Z,99860.94
2023-03-15T10:36:19.015Z,99881.50
2023-03-15T10:40:49.647Z,99877.38
2023-03-15T10:44:51.412Z,99878.88
2023-03-15T10:49:01.685Z,99868.72
2023-03-15T10:53:10.417Z,99887.97
2023-03-15T10:57:17.728Z,99877.59
2023-03-15T11:01:34.709Z,99872.34
2023-03-15T11:05:47.465Z,99882.72
2023-03-15T11:09:54.577Z,99879.00
2023-03-15T11:14:03.285Z,99876.88
2023-03-15T11:18:16.850Z,99887.13
2023-03-15T11:22:18.729Z,99876.78
2023-03-15T11:26:33.363Z,99879.13
2023-03-15T11:30:37.651Z,99875.44
2023-03-15T11:34:53.837Z,99891.50
2023-03-15T11:38:55.729Z,99887.59
2023-03-15T11:43:27.975Z,99891.28
2023-03-15T11:47:57.161Z,99888.63
2023-03-15T11:51:58.992Z,99876.53
2023-03-15T11:56:46.866Z,99875.28
2023-03-15T12:00:51.256Z,99877.81
2023-03-15T12:04:54.542Z,99877.84
2023-03-15T12:08:56.400Z,99863.69
2023-03-15T12:13:05.979Z,99876.56
2023-03-15T12:17:37.718Z,99871.34
2023-03-15T12:21:41.542Z,99878.47
2023-03-15T12:25:57.031Z,99859.13
2023-03-15T12:30:00.420Z,99862.41
2023-03-15T12:34:03.451Z,99867.22
2023-03-15T12:38:12.978Z,99868.75
2023-03-15T12:42:33.726Z,99872.97
2023-03-15T12:46:41.517Z,99871.59
2023-03-15T12:50:52.479Z,99876.63
2023-03-15T12:55:01.743Z,99875.09
2023-03-15T12:59:23.605Z,99875.09
2023-03-15T13:03:26.651Z,99876.72
2023-03-15T13:07:51.088Z,99886.84
2023-03-15T13:12:01.335Z,99887.22
2023-03-15T13:16:27.967Z,99876.16
2023-03-15T13:20:52.265Z,99872.53
2023-03-15T13:25:02.440Z,99871.66
2023-03-15T13:29:29.496Z,99876.47
2023-03-15T13:33:31.799Z,99869.78
2023-03-15T13:37:34.606Z,99877.38
2023-03-15T13:41:38.544Z,99890.97
2023-03-15T13:45:43.617Z,99877.94
2023-03-15T13:49:45.413Z,99885.22
2023-03-15T13:53:50.235Z,99891.38
2023-03-15T13:57:56.881Z,99878.72
2023-03-15T14:02:00.902Z,99884.19
2023-03-15T14:06:04.034Z,99877.03
2023-03-15T14:10:34.564Z,99905.91
2023-03-15T14:14:37.553Z,99911.97
2023-03-15T14:18:41.848Z,99902.78
2023-03-15T14:22:46.709Z,99915.44
2023-03-15T14:26:59.058Z,99916.34
2023-03-15T14:31:02.459Z,99917.66
2023-03-15T14:35:46.354Z,99919.53
2023-03-15T14:39:48.326Z,99920.53
2023-03-15T14:43:51.561Z,99925.44
2023-03-15T14:48:35.767Z,99924.56
2023-03-15T14:52:38.442Z,99920.06
2023-03-15T14:56:44.019Z,99926.34
2023-03-15T15:00:56.299Z,99916.13
2023-03-15T15:04:58.708Z,99911.03
2023-03-15T15:09:01.514Z,99918.00
2023-03-15T15:13:06.697Z,99928.84
2023-03-15T15:17:09.566Z,99921.88
2023-03-15T15:21:14.863Z,99926.34
2023-03-15T15:25:21.968Z,99927.72
2023-03-15T15:29:24.403Z,99936.31
2023-03-15T15:33:26.332Z,99931.66
2023-03-15T15:37:29.689Z,99936.03
2023-03-15T15:41:31.898Z,99944.25
2023-03-15T15:45:34.649Z,99952.31
2023-03-15T15:49:36.479Z,99969.09
2023-03-15T15:53:38.295Z,99971.03
2023-03-15T15:57:40.228Z,99963.16
2023-03-15T16:01:59.361Z,99968.81
2023-03-15T16:06:01.709Z,99977.25
2023-03-15T16:10:04.443Z,99993.00
2023-03-15T16:14:06.392Z,99985.25
2023-03-15T16:18:14.364Z,99998.19
2023-03-15T16:22:17.068Z,100001.63
2023-03-15T16:26:43.377Z,99986.06
2023-03-15T16:30:58.989Z,100020.09
2023-03-15T16:35:01.460Z,100030.09
2023-03-15T16:39:03.829Z,100031.06
2023-03-15T16:43:08.704Z,100035.66
2023-03-15T16:47:10.801Z,100040.13
2023-03-15T16:51:16.100Z,100049.31
2023-03-15T16:55:25.927Z,100047.78
2023-03-15T16:59:28.343Z,100066.75
2023-03-15T17:03:32.341Z,100082.22
2023-03-15T17:07:36.546Z,100079.72
2023-03-15T17:11:39.758Z,100093.84
2023-03-15T17:15:41.775Z,100094.28
2023-03-15T17:19:43.952Z,100106.44
2023-03-15T17:23:49.591Z,100099.88
2023-03-15T17:27:51.515Z,100117.97
2023-03-15T17:31:53.515Z,100118.66
2023-03-15T17:35:57.340Z,100147.28
2023-03-15T17:39:59.352Z,100134.78
2023-03-15T17:44:01.855Z,100141.88
2023-03-15T17:48:04.463Z,100163.63
2023-03-15T17:52:19.487Z,100180.44
2023-03-15T17:56:24.327Z,100176.81
2023-03-15T18:00:26.403Z,100177.97
2023-03-15T18:04:29.358Z,100181.88
2023-03-15T18:08:34.353Z,100198.56
2023-03-15T18:12:39.869Z,100199.25
2023-03-15T18:16:42.935Z,100207.34
2023-03-15T18:20:54.465Z,100210.03
2023-03-15T18:24:56.506Z,100223.69
2023-03-15T18:28:58.751Z,100213.38
2023-03-15T18:33:09.820Z,100216.16
2023-03-15T18:37:13.471Z,100226.41
2023-03-15T18:41:25.721Z,100225.56
2023-03-15T18:45:33.150Z,100224.22
2023-03-15T18:49:38.698Z,100237.56
2023-03-15T18:53:49.876Z,100243.09
2023-03-15T18:57:52.716Z,100239.66
2023-03-15T19:01:54.748Z,100247.63
2023-03-15T19:06:08.076Z,100238.81
2023-03-15T19:10:13.709Z,100244.47
2023-03-15T19:14:18.528Z,100253.78
2023-03-15T19:18:23.132Z,100269.41
2023-03-15T19:22:26.589Z,100268.19
2023-03-15T19:26:28.414Z,100262.69
2023-03-15T19:30:31.974Z,100273.53
2023-03-15T19:34:37.147Z,100275.09
2023-03-15T19:38:39.979Z,100283.34
2023-03-15T19:42:46.447Z,100286.34
2023-03-15T19:46:48.686Z,100302.97
2023-03-15T19:50:50.932Z,100298.41
2023-03-15T19:55:07.305Z,100307.16
2023-03-15T19:59:13.008Z,100321.91
2023-03-15T20:03:14.913Z,100312.53
2023-03-15T20:07:17.049Z,100315.38
2023-03-15T20:11:25.226Z,100318.88
2023-03-15T20:15:29.318Z,100332.06
2023-03-15T20:19:32.942Z,100337.88
2023-03-15T20:23:35.880Z,100337.31
2023-03-15T20:27:37.945Z,100335.28
2023-03-15T20:31:39.972Z,100355.13
2023-03-15T20:35:42.025Z,100348.22
2023-03-15T20:39:43.964Z,100358.91
2023-03-15T20:43:46.573Z,100357.59
2023-03-15T20:47:48.956Z,100369.03
2023-03-15T20:51:51.121Z,100369.13
2023-03-15T20:55:54.162Z,100376.38
2023-03-15T20:59:55.956Z,100384.31
2023-03-15T21:03:58.049Z,100391.81
2023-03-15T21:08:00.012Z,100394.63
2023-03-15T21:12:01.862Z,100404.25
2023-03-15T21:16:05.283Z,100397.59
2023-03-15T21:20:07.797Z,100400.16
2023-03-15T21:24:12.338Z,100411.50
2023-03-15T21:28:14.672Z,100415.25
2023-03-15T21:32:17.134Z,100409.28
2023-03-15T21:36:18.936Z,100410.34
2023-03-15T21:40:20.802Z,100418.53
2023-03-15T21:44:22.728Z,100423.78
2023-03-15T21:48:24.626Z,100423.69
2023-03-15T21:52:28.802Z,100426.41
2023-03-15T21:56:31.798Z,100423.84
2023-03-15T22:00:33.964Z,100432.25
2023-03-15T22:04:35.759Z,100449.59
2023-03-15T22:08:37.888Z,100440.19
2023-03-15T22:12:39.841Z,100444.34
2023-03-15T22:16:41.730Z,100452.00
2023-03-15T22:20:44.617Z,100428.59
2023-03-15T22:24:46.768Z,100446.25
2023-03-15T22:28:49.052Z,100448.19
2023-03-15T22:32:50.841Z,100454.00
2023-03-15T22:36:53.056Z,100464.31
2023-03-15T22:41:09.140Z,100468.63
2023-03-15T22:45:11.295Z,100466.66
2023-03-15T22:49:13.063Z,100472.13
2023-03-15T22:53:14.871Z,100481.06
2023-03-15T22:57:17.081Z,100476.88
2023-03-15T23:01:19.650Z,100484.47
2023-03-15T23:05:21.962Z,100478.69
2023-03-15T23:09:23.763Z,100480.84
2023-03-15T23:13:25.668Z,100495.72
2023-03-15T23:17:27.471Z,100492.66
2023-03-15T23:21:29.497Z,100487.56
2023-03-15T23:25:31.311Z,100501.53
2023-03-15T23:29:40.639Z,100496.53
2023-03-15T23:33:49.041Z,100498.50
2023-03-15T23:37:50.961Z,100489.13
2023-03-15T23:41:52.769Z,100484.44
2023-03-15T23:45:56.826Z,100496.72
2023-03-15T23:49:58.615Z,100512.47
2023-03-15T23:54:01.253Z,100509.94
2023-03-15T23:58:06.735Z,100522.91
